Time;durP1;ratioP1;P1;durP2;ratioP2;P2;SDS_P1;SDS_P2;PMS_P1;PMS_P2;Temp;Humidity;BMP_temperature;BMP_pressure;BME280_temperature;BME280_humidity;BME280_pressure;Samples;Min_cycle;Max_cycle;Signal;HPM_P1;HPM_P2
2023/10/27 00:00:29;;;;;;;0.07;0.07;;;;;;;9.16;100.00;98257.88;4937862;28;20183;-79
2023/10/27 00:02:54;;;;;;;0.00;0.00;;;;;;;9.03;100.00;98245.50;4936228;28;20221;-79
2023/10/27 00:05:20;;;;;;;1.40;1.40;;;;;;;8.87;100.00;98245.53;4937172;28;20179;-81
2023/10/27 00:07:45;;;;;;;0.07;0.07;;;;;;;8.79;100.00;98243.78;4936326;29;20640;-81
2023/10/27 00:10:12;;;;;;;0.10;0.10;;;;;;;8.82;100.00;98251.22;4977701;28;20770;-80
2023/10/27 00:12:40;;;;;;;0.00;0.00;;;;;;;8.87;100.00;98253.69;4985456;28;20203;-80
2023/10/27 00:15:06;;;;;;;0.00;0.00;;;;;;;9.01;100.00;98258.69;4996640;28;20192;-81
2023/10/27 00:17:32;;;;;;;0.00;0.00;;;;;;;9.00;100.00;98251.66;4993155;28;20223;-80
2023/10/27 00:19:58;;;;;;;0.00;0.00;;;;;;;8.86;100.00;98238.50;4949446;28;20193;-81
2023/10/27 00:22:25;;;;;;;0.00;0.00;;;;;;;8.95;100.00;98247.25;4935855;29;20668;-80
2023/10/27 00:24:53;;;;;;;0.00;0.00;;;;;;;8.93;100.00;98246.84;4992329;28;20179;-81
2023/10/27 00:27:20;;;;;;;0.00;0.00;;;;;;;8.93;100.00;98233.22;4962108;28;20183;-80
2023/10/27 00:29:45;;;;;;;0.00;0.00;;;;;;;8.64;100.00;98229.03;4987756;28;20237;-81
2023/10/27 00:32:11;;;;;;;0.00;0.00;;;;;;;8.79;100.00;98239.13;4965806;28;20219;-80
2023/10/27 00:34:36;;;;;;;0.87;0.87;;;;;;;8.79;100.00;98230.94;4937330;28;20218;-80
2023/10/27 00:37:02;;;;;;;0.00;0.00;;;;;;;8.81;100.00;98223.22;4979445;28;20233;-80
2023/10/27 00:39:27;;;;;;;0.00;0.00;;;;;;;8.89;100.00;98233.16;4977382;28;20191;-80
2023/10/27 00:41:53;;;;;;;0.00;0.00;;;;;;;8.78;100.00;98231.31;4994887;28;20227;-80
2023/10/27 00:44:18;;;;;;;0.00;0.00;;;;;;;8.65;100.00;98219.72;4962480;28;20214;-80
2023/10/27 00:46:44;;;;;;;0.00;0.00;;;;;;;8.79;100.00;98222.00;4977498;28;20184;-80
2023/10/27 00:49:11;;;;;;;0.00;0.00;;;;;;;8.89;100.00;98230.41;4977700;28;20722;-80
2023/10/27 00:51:38;;;;;;;0.60;0.60;;;;;;;8.54;100.00;98213.28;4983930;28;20211;-80
2023/10/27 00:54:04;;;;;;;0.00;0.00;;;;;;;8.50;100.00;98212.38;4971143;28;20218;-79
2023/10/27 00:56:30;;;;;;;0.00;0.00;;;;;;;8.60;100.00;98217.28;4977432;28;20196;-80
2023/10/27 00:58:57;;;;;;;0.10;0.10;;;;;;;8.64;100.00;98223.59;4977771;28;20202;-81
2023/10/27 01:01:22;;;;;;;0.00;0.00;;;;;;;8.39;100.00;98209.41;4978110;28;20195;-80
2023/10/27 01:03:50;;;;;;;0.00;0.00;;;;;;;8.14;100.00;98216.91;4979137;28;20183;-80
2023/10/27 01:06:15;;;;;;;0.00;0.00;;;;;;;8.41;100.00;98225.38;4968220;28;20194;-80
2023/10/27 01:08:41;;;;;;;0.00;0.00;;;;;;;8.62;100.00;98232.13;4987993;28;20187;-80
2023/10/27 01:11:08;;;;;;;0.63;0.63;;;;;;;8.57;100.00;98220.72;4963640;28;20179;-80
2023/10/27 01:13:33;;;;;;;0.00;0.00;;;;;;;8.56;100.00;98213.69;4991363;28;20218;-79
2023/10/27 01:15:59;;;;;;;0.00;0.00;;;;;;;8.57;100.00;98216.06;4978943;28;20191;-80
2023/10/27 01:18:24;;;;;;;0.33;0.33;;;;;;;8.27;100.00;98207.53;4974702;28;20403;-80
2023/10/27 01:20:50;;;;;;;0.00;0.00;;;;;;;8.11;100.00;98211.38;4953895;28;20188;-80
2023/10/27 01:23:15;;;;;;;2.17;1.97;;;;;;;8.13;100.00;98212.63;4964662;28;20199;-80
2023/10/27 01:25:40;;;;;;;0.10;0.10;;;;;;;8.03;100.00;98216.63;4979259;28;20238;-79
2023/10/27 01:28:08;;;;;;;0.73;0.73;;;;;;;7.91;100.00;98216.69;4979019;28;20233;-80
2023/10/27 01:30:34;;;;;;;0.00;0.00;;;;;;;8.05;100.00;98224.44;4937658;28;20198;-80
2023/10/27 01:32:59;;;;;;;0.20;0.20;;;;;;;8.12;100.00;98219.19;4937099;28;20207;-80
2023/10/27 01:35:25;;;;;;;0.00;0.00;;;;;;;8.13;100.00;98225.44;4936574;28;20219;-80
2023/10/27 01:37:50;;;;;;;0.00;0.00;;;;;;;8.22;100.00;98221.38;4951998;28;20188;-80
2023/10/27 01:40:15;;;;;;;0.00;0.00;;;;;;;8.00;100.00;98216.53;4994866;28;20192;-80
2023/10/27 01:42:41;;;;;;;0.00;0.00;;;;;;;8.10;100.00;98221.47;4957293;28;20291;-80
2023/10/27 01:45:07;;;;;;;0.00;0.00;;;;;;;8.24;100.00;98221.81;4999092;28;20206;-80
2023/10/27 01:47:33;;;;;;;0.00;0.00;;;;;;;8.30;100.00;98220.44;4998024;28;20192;-80
2023/10/27 01:49:58;;;;;;;0.00;0.00;;;;;;;8.32;100.00;98215.44;4960019;28;20537;-80
2023/10/27 01:52:24;;;;;;;0.33;0.33;;;;;;;8.33;100.00;98219.72;4962434;28;20206;-80
2023/10/27 01:54:50;;;;;;;0.63;0.63;;;;;;;8.20;100.00;98218.22;4981076;28;20645;-80
2023/10/27 01:57:16;;;;;;;0.00;0.00;;;;;;;8.12;100.00;98221.13;4982734;28;20187;-80
2023/10/27 01:59:41;;;;;;;0.00;0.00;;;;;;;8.16;100.00;98225.50;4991249;28;20183;-80
2023/10/27 02:02:06;;;;;;;0.00;0.00;;;;;;;8.30;100.00;98220.44;4975007;28;20655;-80
2023/10/27 02:04:35;;;;;;;0.00;0.00;;;;;;;8.48;100.00;98228.25;4941532;28;20257;-80
2023/10/27 02:07:00;;;;;;;0.23;0.23;;;;;;;8.46;100.00;98216.94;4963279;28;20180;-79
2023/10/27 02:09:26;;;;;;;0.13;0.13;;;;;;;8.28;100.00;98217.28;5000704;28;20199;-80
2023/10/27 02:11:52;;;;;;;0.07;0.07;;;;;;;8.25;100.00;98217.97;4958327;28;20575;-80
2023/10/27 02:14:18;;;;;;;0.00;0.00;;;;;;;8.32;100.00;98220.88;4967570;28;20225;-79
2023/10/27 02:16:43;;;;;;;0.00;0.00;;;;;;;8.34;100.00;98228.69;4940509;28;20196;-79
2023/10/27 02:19:09;;;;;;;0.00;0.00;;;;;;;8.36;100.00;98229.13;4982003;28;20183;-80
2023/10/27 02:21:34;;;;;;;0.00;0.00;;;;;;;8.38;100.00;98236.94;4981881;28;20176;-80
2023/10/27 02:23:59;;;;;;;0.00;0.00;;;;;;;8.46;100.00;98238.72;4980666;28;20261;-80
2023/10/27 02:26:25;;;;;;;0.00;0.00;;;;;;;8.53;100.00;98245.09;4981242;28;20179;-80
2023/10/27 02:28:50;;;;;;;0.00;0.00;;;;;;;8.54;100.00;98233.09;4981385;28;20191;-79
2023/10/27 02:31:15;;;;;;;0.00;0.00;;;;;;;8.63;100.00;98238.34;4970050;28;20184;-79
2023/10/27 02:33:41;;;;;;;0.00;0.00;;;;;;;8.75;100.00;98248.34;4990567;28;20253;-80
2023/10/27 02:36:07;;;;;;;0.20;0.20;;;;;;;8.35;100.00;98224.84;4939304;28;20191;-80
2023/10/27 02:38:32;;;;;;;0.00;0.00;;;;;;;8.27;100.00;98228.50;4939999;28;20344;-80
2023/10/27 02:41:06;;;;;;;0.00;0.00;;;;;;;8.08;100.00;98223.72;4977522;28;20349;-79
2023/10/27 02:43:33;;;;;;;0.00;0.00;;;;;;;8.15;100.00;98231.31;4939385;28;20291;-79
2023/10/27 02:46:00;;;;;;;0.00;0.00;;;;;;;8.25;100.00;98245.19;4977967;28;20278;-80
2023/10/27 02:48:26;;;;;;;0.00;0.00;;;;;;;8.27;100.00;98237.47;4980715;28;20186;-80
2023/10/27 02:50:51;;;;;;;0.00;0.00;;;;;;;8.21;100.00;98229.91;4980796;28;20188;-81
2023/10/27 02:53:17;;;;;;;0.00;0.00;;;;;;;8.30;100.00;98244.13;4980017;28;20203;-80
2023/10/27 02:55:42;;;;;;;0.00;0.00;;;;;;;8.37;100.00;98240.81;4989134;28;20587;-79
2023/10/27 02:58:07;;;;;;;0.00;0.00;;;;;;;8.37;100.00;98228.00;4971546;28;20191;-79
2023/10/27 03:00:33;;;;;;;0.00;0.00;;;;;;;8.34;100.00;98226.78;4941068;28;20191;-79
2023/10/27 03:02:58;;;;;;;0.00;0.00;;;;;;;8.29;100.00;98223.50;4977591;28;20719;-79
2023/10/27 03:05:23;;;;;;;0.00;0.00;;;;;;;8.34;100.00;98224.06;4980902;28;20180;-80
2023/10/27 03:07:49;;;;;;;0.00;0.00;;;;;;;8.44;100.00;98236.34;4978637;28;20203;-80
2023/10/27 03:10:14;;;;;;;0.00;0.00;;;;;;;8.33;100.00;98218.94;4968082;28;20191;-79
2023/10/27 03:12:40;;;;;;;0.00;0.00;;;;;;;8.29;100.00;98218.84;4954569;28;20679;-79
2023/10/27 03:15:05;;;;;;;0.00;0.00;;;;;;;8.24;100.00;98219.09;4995183;28;20203;-79
2023/10/27 03:17:31;;;;;;;0.00;0.00;;;;;;;7.92;100.00;98210.13;4994669;28;20290;-80
2023/10/27 03:19:57;;;;;;;0.00;0.00;;;;;;;7.71;100.00;98213.06;4979682;28;20189;-80
2023/10/27 03:22:22;;;;;;;0.00;0.00;;;;;;;7.72;100.00;98217.38;4977637;28;20233;-79
2023/10/27 03:24:48;;;;;;;0.00;0.00;;;;;;;7.72;100.00;98220.09;4991830;28;20628;-79
2023/10/27 03:27:13;;;;;;;0.00;0.00;;;;;;;7.83;100.00;98225.81;4964799;28;20241;-79
2023/10/27 03:29:38;;;;;;;0.00;0.00;;;;;;;8.01;100.00;98229.78;4979003;28;20194;-80
2023/10/27 03:32:06;;;;;;;0.00;0.00;;;;;;;8.22;100.00;98239.63;4961307;28;20275;-80
2023/10/27 03:34:32;;;;;;;0.00;0.00;;;;;;;8.32;100.00;98222.78;4994357;28;20199;-80
2023/10/27 03:36:57;;;;;;;0.00;0.00;;;;;;;8.81;100.00;98245.00;4978789;28;20191;-79
2023/10/27 03:39:23;;;;;;;0.00;0.00;;;;;;;8.60;100.00;98225.44;4977127;28;20412;-80
2023/10/27 03:41:48;;;;;;;0.70;0.70;;;;;;;8.32;100.00;98207.25;4937631;29;20215;-79
2023/10/27 03:44:13;;;;;;;0.00;0.00;;;;;;;8.34;100.00;98209.66;4979343;28;20187;-78
2023/10/27 03:46:39;;;;;;;0.00;0.00;;;;;;;8.49;100.00;98219.75;4943345;28;20191;-79
2023/10/27 03:49:04;;;;;;;0.00;0.00;;;;;;;8.61;100.00;98221.59;4971751;28;20248;-79
2023/10/27 03:51:31;;;;;;;0.00;0.00;;;;;;;8.67;100.00;98224.81;4937025;28;20532;-80
2023/10/27 03:53:56;;;;;;;0.00;0.00;;;;;;;8.69;100.00;98219.84;4935661;28;20214;-79
2023/10/27 03:56:22;;;;;;;0.00;0.00;;;;;;;8.74;100.00;98214.13;4977292;28;20203;-79
2023/10/27 03:58:47;;;;;;;0.00;0.00;;;;;;;8.67;100.00;98212.00;4990380;28;20179;-79
2023/10/27 04:01:12;;;;;;;0.00;0.00;;;;;;;8.80;100.00;98221.63;4994198;28;20183;-80
2023/10/27 04:03:38;;;;;;;0.00;0.00;;;;;;;8.89;100.00;98213.28;4989373;28;20202;-80
2023/10/27 04:06:03;;;;;;;0.10;0.10;;;;;;;8.95;100.00;98218.09;4990699;28;20264;-80
2023/10/27 04:08:29;;;;;;;0.00;0.00;;;;;;;8.90;100.00;98209.41;4973708;28;20191;-80
2023/10/27 04:10:54;;;;;;;0.17;0.17;;;;;;;8.71;100.00;98195.78;4938527;29;20697;-80
2023/10/27 04:13:19;;;;;;;0.00;0.00;;;;;;;8.58;100.00;98203.25;4939397;28;20239;-80
2023/10/27 04:15:45;;;;;;;0.10;0.10;;;;;;;8.16;100.00;98176.56;4939147;29;20294;-80
2023/10/27 04:18:10;;;;;;;0.00;0.00;;;;;;;7.94;100.00;98182.59;4980517;28;20588;-80
2023/10/27 04:20:36;;;;;;;0.00;0.00;;;;;;;7.95;100.00;98184.16;4981562;28;20202;-80
2023/10/27 04:23:02;;;;;;;0.00;0.00;;;;;;;7.92;100.00;98193.81;4939439;28;20195;-79
2023/10/27 04:25:28;;;;;;;0.00;0.00;;;;;;;7.63;100.00;98183.31;4940613;28;20538;-80
2023/10/27 04:27:54;;;;;;;0.00;0.00;;;;;;;7.64;100.00;98196.56;4997285;28;20784;-81
2023/10/27 04:30:20;;;;;;;0.00;0.00;;;;;;;7.21;100.00;98175.56;4999119;28;20176;-80
2023/10/27 04:32:45;;;;;;;0.00;0.00;;;;;;;6.99;100.00;98176.88;4945788;28;20298;-80
2023/10/27 04:35:12;;;;;;;0.00;0.00;;;;;;;7.06;100.00;98189.88;4939739;28;20199;-80
2023/10/27 04:37:38;;;;;;;0.40;0.40;;;;;;;7.24;100.00;98207.50;4981782;28;20175;-79
2023/10/27 04:40:04;;;;;;;0.00;0.00;;;;;;;7.14;100.00;98207.97;4940675;29;20183;-81
2023/10/27 04:42:30;;;;;;;0.00;0.00;;;;;;;7.18;100.00;98208.84;4981324;28;20199;-79
2023/10/27 04:44:55;;;;;;;0.00;0.00;;;;;;;7.24;100.00;98203.97;4932647;28;20178;-80
2023/10/27 04:47:21;;;;;;;0.00;0.00;;;;;;;7.47;100.00;98216.66;4981872;28;20667;-80
2023/10/27 04:49:46;;;;;;;0.00;0.00;;;;;;;7.59;100.00;98224.00;4951136;28;20322;-80
2023/10/27 04:52:12;;;;;;;0.00;0.00;;;;;;;7.76;100.00;98215.53;4999033;28;20199;-80
2023/10/27 04:54:37;;;;;;;6.60;2.90;;;;;;;7.87;100.00;98226.69;4993293;28;20195;-80
2023/10/27 04:57:03;;;;;;;0.90;0.90;;;;;;;7.89;100.00;98210.81;4963003;28;20212;-80
2023/10/27 04:59:32;;;;;;;1.20;1.20;;;;;;;7.82;100.00;98199.78;4957311;28;20187;-80
2023/10/27 05:01:57;;;;;;;1.00;1.00;;;;;;;7.75;100.00;98194.13;4957914;28;20210;-80
2023/10/27 05:04:23;;;;;;;0.60;0.60;;;;;;;7.67;100.00;98192.38;4999006;28;20168;-79
2023/10/27 05:06:48;;;;;;;0.10;0.10;;;;;;;7.65;100.00;98194.63;4944094;28;20179;-79
2023/10/27 05:09:14;;;;;;;0.00;0.00;;;;;;;7.51;100.00;98186.88;4938800;28;20190;-80
2023/10/27 05:11:42;;;;;;;0.00;0.00;;;;;;;7.33;100.00;98188.31;4946007;28;20618;-79
2023/10/27 05:14:08;;;;;;;0.00;0.00;;;;;;;7.09;100.00;98192.72;4998079;28;20184;-80
2023/10/27 05:16:33;;;;;;;0.00;0.00;;;;;;;7.01;100.00;98193.63;4959282;28;20191;-80
2023/10/27 05:18:58;;;;;;;0.00;0.00;;;;;;;7.22;100.00;98206.22;4982513;28;20278;-80
2023/10/27 05:21:26;;;;;;;0.00;0.00;;;;;;;7.20;100.00;98205.78;4981091;28;20210;-79
2023/10/27 05:23:56;;;;;;;0.00;0.00;;;;;;;7.50;100.00;98214.41;4986000;28;20287;-80
2023/10/27 05:26:21;;;;;;;0.00;0.00;;;;;;;7.54;100.00;98209.88;4943585;28;20189;-80
2023/10/27 05:28:47;;;;;;;0.00;0.00;;;;;;;7.23;100.00;98205.09;4997140;28;20246;-80
2023/10/27 05:31:12;;;;;;;0.00;0.00;;;;;;;7.22;100.00;98208.94;4972221;28;20734;-80
2023/10/27 05:33:37;;;;;;;0.00;0.00;;;;;;;7.29;100.00;98220.03;4947436;28;20213;-80
2023/10/27 05:36:03;;;;;;;0.00;0.00;;;;;;;7.61;100.00;98224.44;4978485;28;20198;-80
2023/10/27 05:38:29;;;;;;;0.00;0.00;;;;;;;7.63;100.00;98219.44;4943860;28;20547;-80
2023/10/27 05:40:55;;;;;;;0.00;0.00;;;;;;;7.66;100.00;98212.50;4942810;28;20183;-80
2023/10/27 05:43:21;;;;;;;0.00;0.00;;;;;;;7.84;100.00;98221.16;4983523;28;20199;-80
2023/10/27 05:45:46;;;;;;;0.00;0.00;;;;;;;7.90;100.00;98219.78;4991977;28;20650;-80
2023/10/27 05:48:11;;;;;;;0.00;0.00;;;;;;;7.81;100.00;98219.94;4998130;28;20176;-80
2023/10/27 05:50:37;;;;;;;0.00;0.00;;;;;;;7.93;100.00;98228.00;4954541;28;20183;-79
2023/10/27 05:53:02;;;;;;;1.00;1.00;;;;;;;8.45;100.00;98239.84;4974464;28;20691;-79
2023/10/27 05:55:27;;;;;;;0.00;0.00;;;;;;;8.44;100.00;98213.78;4995420;22;20214;-79
2023/10/27 05:57:53;;;;;;;0.00;0.00;;;;;;;8.55;100.00;98210.19;4957175;28;20218;-79
2023/10/27 06:00:18;;;;;;;0.00;0.00;;;;;;;8.62;100.00;98201.38;5027262;28;20616;-79
2023/10/27 06:02:43;;;;;;;0.00;0.00;;;;;;;8.73;100.00;98205.16;5001736;28;20210;-79
2023/10/27 06:05:09;;;;;;;0.00;0.00;;;;;;;8.74;100.00;98195.84;5022470;28;20258;-79
2023/10/27 06:07:34;;;;;;;0.00;0.00;;;;;;;8.80;100.00;98199.84;5007388;28;20213;-79
2023/10/27 06:10:00;;;;;;;0.00;0.00;;;;;;;8.71;100.00;98188.38;4956251;28;20185;-79
2023/10/27 06:12:25;;;;;;;0.00;0.00;;;;;;;8.48;100.00;98184.72;4955712;28;20206;-79
2023/10/27 06:14:51;;;;;;;0.00;0.00;;;;;;;8.34;100.00;98174.28;4997645;28;20205;-79
2023/10/27 06:17:16;;;;;;;0.00;0.00;;;;;;;8.26;100.00;98172.53;4955890;28;20613;-79
2023/10/27 06:19:42;;;;;;;0.00;0.00;;;;;;;8.32;100.00;98177.34;4997173;28;20194;-79
2023/10/27 06:22:09;;;;;;;0.00;0.00;;;;;;;8.32;100.00;98188.22;4953934;28;20290;-79
2023/10/27 06:24:34;;;;;;;0.00;0.00;;;;;;;8.32;100.00;98182.78;4997114;28;20542;-79
2023/10/27 06:26:59;;;;;;;0.00;0.00;;;;;;;8.32;100.00;98192.88;4995503;28;20188;-79
2023/10/27 06:29:25;;;;;;;0.00;0.00;;;;;;;8.07;100.00;98178.66;4992162;28;20179;-79
2023/10/27 06:31:50;;;;;;;3.30;2.33;;;;;;;8.04;100.00;98190.22;4961844;28;20203;-78
2023/10/27 06:34:15;;;;;;;0.00;0.00;;;;;;;7.91;100.00;98192.22;4993742;28;20671;-79
2023/10/27 06:36:41;;;;;;;0.00;0.00;;;;;;;7.97;100.00;98207.16;4996923;28;20644;-79
2023/10/27 06:39:06;;;;;;;0.00;0.00;;;;;;;7.95;100.00;98208.63;4980019;28;20183;-79
2023/10/27 06:41:31;;;;;;;0.00;0.00;;;;;;;8.29;100.00;98218.84;5013430;28;20183;-78
2023/10/27 06:43:57;;;;;;;0.00;0.00;;;;;;;7.92;100.00;98206.63;4995816;28;20202;-79
2023/10/27 06:46:22;;;;;;;0.00;0.00;;;;;;;8.02;100.00;98215.06;4993535;28;20187;-79
2023/10/27 06:48:50;;;;;;;0.00;0.00;;;;;;;8.22;100.00;98218.66;5002339;28;20183;-79
2023/10/27 06:51:15;;;;;;;0.93;0.93;;;;;;;8.42;100.00;98229.69;4955350;28;20239;-79
2023/10/27 06:53:41;;;;;;;0.00;0.00;;;;;;;8.45;100.00;98229.75;4953891;28;20662;-79
2023/10/27 06:56:06;;;;;;;0.00;0.00;;;;;;;8.58;100.00;98231.25;4978335;28;20198;-79
2023/10/27 06:58:31;;;;;;;0.00;0.00;;;;;;;8.72;100.00;98230.00;4971539;28;20268;-78
2023/10/27 07:01:05;;;;;;;0.00;0.00;;;;;;;8.43;100.00;98226.59;4996333;28;20647;-78
2023/10/27 07:03:30;;;;;;;0.00;0.00;;;;;;;8.46;100.00;98228.63;4953008;28;20198;-79
2023/10/27 07:05:55;;;;;;;0.00;0.00;;;;;;;8.57;100.00;98237.06;4946572;28;20546;-79
2023/10/27 07:08:20;;;;;;;0.00;0.00;;;;;;;8.40;100.00;98232.75;4989790;28;20265;-78
2023/10/27 07:10:47;;;;;;;0.00;0.00;;;;;;;8.24;100.00;98238.13;4969992;28;20193;-79
2023/10/27 07:13:12;;;;;;;1.57;0.97;;;;;;;8.10;100.00;98240.53;4982126;28;20203;-78
2023/10/27 07:15:37;;;;;;;1.37;1.30;;;;;;;8.00;100.00;98251.91;4954149;28;20263;-78
2023/10/27 07:18:03;;;;;;;0.83;0.83;;;;;;;7.91;100.00;98262.13;4975871;28;20187;-78
2023/10/27 07:20:28;;;;;;;0.00;0.00;;;;;;;7.79;100.00;98270.34;4974965;28;20269;-77
2023/10/27 07:22:54;;;;;;;0.00;0.00;;;;;;;7.90;100.00;98271.41;4969729;28;20235;-78
2023/10/27 07:25:19;;;;;;;0.10;0.10;;;;;;;7.91;100.00;98270.28;4954421;28;20269;-79
2023/10/27 07:27:45;;;;;;;0.90;0.90;;;;;;;7.87;100.00;98272.13;4962661;28;20271;-78
2023/10/27 07:30:11;;;;;;;0.57;0.57;;;;;;;7.84;100.00;98278.25;5013956;28;20194;-77
2023/10/27 07:32:36;;;;;;;0.30;0.30;;;;;;;7.83;100.00;98271.25;4964156;28;20209;-77
2023/10/27 07:35:02;;;;;;;0.37;0.37;;;;;;;7.86;100.00;98275.97;4950665;28;20227;-76
2023/10/27 07:37:27;;;;;;;0.00;0.00;;;;;;;7.92;100.00;98282.75;4952027;28;20194;-77
2023/10/27 07:39:53;;;;;;;0.00;0.00;;;;;;;8.09;100.00;98287.06;4951168;28;20280;-77
2023/10/27 07:42:18;;;;;;;0.10;0.10;;;;;;;8.09;100.00;98281.63;4951841;28;20206;-77
2023/10/27 07:44:43;;;;;;;0.77;0.77;;;;;;;8.29;100.00;98294.22;4968149;28;20215;-77
2023/10/27 07:47:09;;;;;;;1.10;1.00;;;;;;;8.25;100.00;98283.28;4958021;28;20260;-76
2023/10/27 07:49:34;;;;;;;0.10;0.10;;;;;;;8.44;100.00;98290.78;4950596;28;20554;-77
2023/10/27 07:51:59;;;;;;;0.00;0.00;;;;;;;8.53;100.00;98282.41;4993699;28;20201;-77
2023/10/27 07:54:25;;;;;;;0.00;0.00;;;;;;;8.37;100.00;98284.34;4951508;28;20293;-78
2023/10/27 07:56:50;;;;;;;0.93;0.93;;;;;;;8.20;100.00;98280.78;4964563;28;20198;-77
2023/10/27 07:59:16;;;;;;;0.53;0.30;;;;;;;8.41;100.00;98285.25;4979650;28;20186;-77
2023/10/27 08:01:41;;;;;;;0.03;0.03;;;;;;;8.39;100.00;98287.50;4993814;28;20199;-77
2023/10/27 08:04:06;;;;;;;0.00;0.00;;;;;;;8.30;100.00;98282.22;4951590;28;20665;-77
2023/10/27 08:06:32;;;;;;;0.00;0.00;;;;;;;8.32;100.00;98285.38;4952681;28;20264;-78
2023/10/27 08:08:58;;;;;;;0.20;0.20;;;;;;;8.30;100.00;98279.50;4952796;28;20593;-77
2023/10/27 08:11:24;;;;;;;0.00;0.00;;;;;;;8.38;100.00;98289.44;4951358;28;20201;-78
2023/10/27 08:13:49;;;;;;;1.60;1.60;;;;;;;8.31;100.00;98281.06;4994314;28;20316;-77
2023/10/27 08:16:15;;;;;;;0.00;0.00;;;;;;;8.36;100.00;98286.28;4982107;28;20233;-77
2023/10/27 08:18:41;;;;;;;1.27;1.27;;;;;;;8.48;100.00;98294.38;4962122;28;20248;-77
2023/10/27 08:21:06;;;;;;;0.33;0.33;;;;;;;8.44;100.00;98288.06;4952025;28;20659;-77
2023/10/27 08:23:31;;;;;;;0.00;0.00;;;;;;;8.53;100.00;98293.31;4951246;28;20570;-78
2023/10/27 08:25:57;;;;;;;0.10;0.10;;;;;;;8.56;100.00;98298.84;4992072;28;20659;-77
2023/10/27 08:28:22;;;;;;;0.00;0.00;;;;;;;8.65;100.00;98309.56;4952627;28;20679;-77
2023/10/27 08:30:50;;;;;;;0.00;0.00;;;;;;;8.84;100.00;98308.88;5006382;28;20190;-78
2023/10/27 08:33:16;;;;;;;0.73;0.67;;;;;;;8.77;100.00;98301.31;4979280;28;20210;-77
2023/10/27 08:35:41;;;;;;;0.00;0.00;;;;;;;8.71;100.00;98305.44;4952883;28;20199;-77
2023/10/27 08:38:07;;;;;;;0.00;0.00;;;;;;;8.76;100.00;98301.66;4994181;28;20186;-78
2023/10/27 08:40:34;;;;;;;0.00;0.00;;;;;;;8.71;100.00;98300.00;4952774;28;20659;-78
2023/10/27 08:43:02;;;;;;;0.10;0.10;;;;;;;8.60;100.00;98309.81;4972318;28;20230;-78
2023/10/27 08:45:29;;;;;;;1.30;1.30;;;;;;;8.61;100.00;98303.25;4971173;28;20182;-77
2023/10/27 08:47:54;;;;;;;0.00;0.00;;;;;;;8.90;100.00;98302.78;4951021;28;20186;-78
2023/10/27 08:50:20;;;;;;;0.00;0.00;;;;;;;8.86;100.00;98306.59;4986354;28;20179;-77
2023/10/27 08:52:46;;;;;;;0.00;0.00;;;;;;;9.00;100.00;98315.09;4999453;28;20590;-78
2023/10/27 08:55:12;;;;;;;0.00;0.00;;;;;;;9.20;100.00;98315.94;4992063;28;20298;-78
2023/10/27 08:57:38;;;;;;;0.20;0.20;;;;;;;9.19;100.00;98306.97;4956091;28;20186;-77
2023/10/27 09:00:08;;;;;;;0.00;0.00;;;;;;;9.10;100.00;98305.56;4988095;28;20265;-77
2023/10/27 09:02:35;;;;;;;0.00;0.00;;;;;;;9.12;100.00;98298.66;4950794;28;20671;-77
2023/10/27 09:05:10;;;;;;;0.00;0.00;;;;;;;8.90;100.00;98294.63;4973362;28;20171;-78
2023/10/27 09:07:36;;;;;;;0.17;0.17;;;;;;;8.91;100.00;98304.38;4966574;28;20269;-77
2023/10/27 09:10:04;;;;;;;0.10;0.10;;;;;;;8.97;100.00;98309.53;4995535;28;20189;-77
2023/10/27 09:12:31;;;;;;;0.27;0.27;;;;;;;8.92;100.00;98311.41;4948319;28;20248;-78
2023/10/27 09:15:05;;;;;;;0.00;0.00;;;;;;;9.02;100.00;98312.00;4964731;28;20206;-77
2023/10/27 09:17:31;;;;;;;0.00;0.00;;;;;;;9.01;100.00;98313.16;4979753;28;20194;-77
2023/10/27 09:20:06;;;;;;;0.00;0.00;;;;;;;9.19;100.00;98317.88;4963567;28;20182;-79
2023/10/27 09:22:32;;;;;;;1.00;1.00;;;;;;;9.07;100.00;98301.63;4993577;28;20259;-77
2023/10/27 09:25:19;;;;;;;0.10;0.10;;;;;;;9.22;100.00;98310.91;4978369;28;20639;-77
2023/10/27 09:27:45;;;;;;;0.63;0.63;;;;;;;9.18;100.00;98308.13;4950655;28;20277;-78
2023/10/27 09:30:13;;;;;;;1.73;1.73;;;;;;;9.23;100.00;98307.03;4957575;28;20233;-78
2023/10/27 09:32:40;;;;;;;0.00;0.00;;;;;;;9.28;100.00;98304.06;4951738;28;20714;-77
2023/10/27 09:35:07;;;;;;;0.00;0.00;;;;;;;9.32;100.00;98307.66;4957245;28;20226;-76
2023/10/27 09:37:34;;;;;;;0.10;0.10;;;;;;;9.32;100.00;98301.41;4959740;28;20189;-77
2023/10/27 09:40:00;;;;;;;0.00;0.00;;;;;;;9.73;100.00;98321.78;4970669;28;20206;-77
2023/10/27 09:42:26;;;;;;;0.00;0.00;;;;;;;9.47;100.00;98295.91;5010221;28;20697;-77
2023/10/27 09:45:12;;;;;;;0.20;0.20;;;;;;;9.49;100.00;98301.78;4953257;28;20178;-77
2023/10/27 09:47:40;;;;;;;0.27;0.27;;;;;;;9.63;100.00;98306.78;4991522;28;20213;-77
2023/10/27 09:50:06;;;;;;;0.10;0.10;;;;;;;9.81;100.00;98307.91;4949432;28;20352;-77
2023/10/27 09:52:33;;;;;;;0.00;0.00;;;;;;;10.14;100.00;98310.16;4951267;28;20295;-77
2023/10/27 09:55:01;;;;;;;0.00;0.00;;;;;;;10.21;100.00;98295.06;4950734;28;20804;-77
2023/10/27 09:57:28;;;;;;;0.00;0.00;;;;;;;10.38;100.00;98297.34;4951076;28;20186;-76
2023/10/27 09:59:54;;;;;;;0.00;0.00;;;;;;;10.31;100.00;98297.22;4951053;28;20723;-77
2023/10/27 10:02:23;;;;;;;0.00;0.00;;;;;;;10.27;100.00;98282.72;4993453;28;20252;-77
2023/10/27 10:04:51;;;;;;;0.00;0.00;;;;;;;10.35;100.00;98287.16;4954681;28;20202;-77
2023/10/27 10:07:43;;;;;;;0.00;0.00;;;;;;;10.40;100.00;98292.31;4955379;28;20194;-77
2023/10/27 10:10:32;;;;;;;0.00;0.00;;;;;;;10.37;100.00;98295.75;4955484;28;20552;-77
2023/10/27 10:13:17;;;;;;;0.00;0.00;;;;;;;10.37;100.00;98295.75;4957151;23;20243;-85
2023/10/27 10:15:58;;;;;;;0.00;0.00;;;;;;;-144.99;100.00;67352.69;4975621;28;20206;-86
2023/10/27 10:18:23;;;;;;;0.00;0.00;;;;;;;-144.99;100.00;67352.69;4934334;28;20652;-86
2023/10/27 10:20:48;;;;;;;0.00;0.00;;;;;;;-144.99;100.00;67352.69;4934101;28;20194;-86
2023/10/27 10:23:14;;;;;;;1.90;0.73;;;;;;;-144.99;100.00;67352.69;4934056;28;20195;-86
2023/10/27 10:25:54;;;;;;;0.23;0.23;;;;;;;-144.99;100.00;67352.69;4932380;28;20210;-86
2023/10/27 10:28:19;;;;;;;0.30;0.30;;;;;;;-144.99;100.00;67352.69;4934395;28;20218;-86
2023/10/27 10:31:06;;;;;;;0.00;0.00;;;;;;;-144.99;100.00;67352.69;4934189;28;20214;-86
2023/10/27 10:33:31;;;;;;;0.67;0.67;;;;;;;-144.99;100.00;67352.69;4934307;28;20572;-86
2023/10/27 10:36:18;;;;;;;0.10;0.10;;;;;;;-144.99;100.00;67352.69;4933686;28;20215;-86
2023/10/27 10:38:55;;;;;;;1.70;1.13;;;;;;;-144.99;100.00;67352.69;4934099;28;20581;-86
2023/10/27 10:41:21;;;;;;;0.40;0.40;;;;;;;-144.99;100.00;67352.69;4936112;28;20177;-86
2023/10/27 10:44:13;;;;;;;1.80;1.00;;;;;;;-144.99;100.00;67352.69;4940507;28;20661;-86
2023/10/27 10:46:38;;;;;;;0.40;0.40;;;;;;;-144.99;100.00;67352.69;4941111;28;20210;-86
2023/10/27 10:49:04;;;;;;;0.20;0.20;;;;;;;-144.99;100.00;67352.69;4943938;28;20217;-86
2023/10/27 10:51:30;;;;;;;0.80;0.47;;;;;;;-144.99;100.00;67352.69;4934118;28;20191;-85
2023/10/27 10:53:56;;;;;;;0.00;0.00;;;;;;;-144.99;100.00;67352.69;4948595;28;20183;-86
2023/10/27 10:56:23;;;;;;;0.00;0.00;;;;;;;-144.99;100.00;67352.69;4946102;28;20567;-85
2023/10/27 10:58:48;;;;;;;0.00;0.00;;;;;;;-144.99;100.00;67352.69;4933540;28;20187;-86
2023/10/27 11:01:16;;;;;;;0.87;0.87;;;;;;;-144.99;100.00;67352.69;4933778;28;20709;-85
2023/10/27 11:03:49;;;;;;;0.73;0.73;;;;;;;-144.99;100.00;67352.69;4931427;28;20562;-85
2023/10/27 11:06:14;;;;;;;2.60;0.57;;;;;;;-144.99;100.00;67352.69;4932754;28;20215;-86
2023/10/27 11:08:40;;;;;;;0.07;0.07;;;;;;;-144.99;100.00;67352.69;4973927;28;20213;-86
2023/10/27 11:11:09;;;;;;;1.00;1.00;;;;;;;-144.99;100.00;67352.69;4944962;28;20221;-87
2023/10/27 11:13:43;;;;;;;0.20;0.20;;;;;;;-144.99;100.00;67352.69;4939281;28;20191;-85
2023/10/27 11:16:25;;;;;;;1.30;1.23;;;;;;;-144.99;100.00;67352.69;4965322;28;20211;-86
2023/10/27 11:18:53;;;;;;;0.00;0.00;;;;;;;-144.99;100.00;67352.69;4932723;28;20207;-86
2023/10/27 11:21:24;;;;;;;1.23;1.20;;;;;;;-144.99;100.00;67352.69;4933561;28;20186;-86
2023/10/27 11:24:00;;;;;;;0.00;0.00;;;;;;;-144.99;100.00;67352.69;4947301;28;20253;-85
2023/10/27 11:26:26;;;;;;;0.00;0.00;;;;;;;-144.99;100.00;67352.69;4997357;28;20207;-86
2023/10/27 11:28:55;;;;;;;0.27;0.27;;;;;;;-144.99;100.00;67352.69;4943902;28;20274;-86